Time;durP1;ratioP1;P1;durP2;ratioP2;P2;SDS_P1;SDS_P2;PMS_P1;PMS_P2;Temp;Humidity;BMP_temperature;BMP_pressure;BME280_temperature;BME280_humidity;BME280_pressure;Samples;Min_cycle;Max_cycle;Signal;HPM_P1;HPM_P2
2023/06/01 00:00:15;;;;;;;6.87;3.73;;;15.00;98.00;;;;;;5055015;28;20512;-72
2023/06/01 00:02:45;;;;;;;6.10;3.60;;;15.00;98.00;;;;;;5037093;28;20450;-72
2023/06/01 00:05:12;;;;;;;7.57;4.00;;;14.90;98.00;;;;;;5054717;28;20873;-72
2023/06/01 00:07:39;;;;;;;20.23;3.87;;;15.20;98.00;;;;;;5054844;28;20457;-72
2023/06/01 00:10:14;;;;;;;6.60;3.60;;;15.30;98.00;;;;;;5054819;28;20461;-72
2023/06/01 00:12:42;;;;;;;8.33;4.03;;;15.30;98.00;;;;;;5054768;28;20941;-72
2023/06/01 00:15:09;;;;;;;8.10;3.73;;;15.20;98.00;;;;;;5054653;28;20550;-72
2023/06/01 00:17:36;;;;;;;6.80;3.70;;;15.20;98.00;;;;;;5054654;28;20523;-72
2023/06/01 00:20:08;;;;;;;6.80;3.70;;;15.10;98.00;;;;;;5054599;28;20535;-72
2023/06/01 00:22:38;;;;;;;7.10;3.43;;;14.90;98.00;;;;;;5054826;28;20453;-71
2023/06/01 00:25:06;;;;;;;9.60;3.47;;;14.80;98.00;;;;;;5054954;28;20457;-72
2023/06/01 00:27:33;;;;;;;8.60;4.00;;;14.80;98.00;;;;;;5054760;28;20844;-71
2023/06/01 00:30:00;;;;;;;4.83;3.10;;;15.00;98.00;;;;;;5054841;28;20468;-72
2023/06/01 00:32:35;;;;;;;6.27;3.33;;;15.00;98.00;;;;;;5054637;28;20536;-72
2023/06/01 00:35:02;;;;;;;8.00;4.03;;;14.70;98.00;;;;;;5054375;28;20461;-72
2023/06/01 00:37:31;;;;;;;6.17;3.20;;;14.50;98.00;;;;;;5054389;28;20454;-71
2023/06/01 00:39:58;;;;;;;6.97;3.67;;;14.40;98.00;;;;;;5054203;28;20470;-71
2023/06/01 00:42:25;;;;;;;10.10;3.40;;;14.50;98.00;;;;;;5054341;28;20921;-72
2023/06/01 00:44:53;;;;;;;8.27;4.00;;;14.50;98.00;;;;;;5054389;28;20486;-72
2023/06/01 00:47:20;;;;;;;8.20;3.90;;;14.50;98.00;;;;;;5036564;28;20503;-71
2023/06/01 00:49:50;;;;;;;7.30;4.07;;;14.50;98.00;;;;;;5054148;28;20542;-71
2023/06/01 00:52:18;;;;;;;7.50;4.47;;;14.30;98.00;;;;;;5054042;28;20527;-72
2023/06/01 00:54:47;;;;;;;6.50;3.80;;;14.20;98.00;;;;;;5036265;28;21028;-72
2023/06/01 00:57:15;;;;;;;7.27;4.07;;;14.10;98.00;;;;;;5053862;28;20461;-71
2023/06/01 00:59:42;;;;;;;6.30;3.47;;;14.30;98.00;;;;;;5054023;28;20457;-72
2023/06/01 01:02:09;;;;;;;6.40;3.50;;;14.50;98.00;;;;;;5054052;28;20852;-72
2023/06/01 01:04:37;;;;;;;6.67;3.73;;;14.70;98.00;;;;;;5053791;28;20454;-71
2023/06/01 01:07:20;;;;;;;9.27;4.27;;;14.50;98.00;;;;;;5054047;28;20504;-72
2023/06/01 01:09:55;;;;;;;6.30;3.53;;;14.40;98.00;;;;;;5053105;28;20450;-72
2023/06/01 01:12:28;;;;;;;7.40;4.07;;;14.20;98.00;;;;;;5035852;28;20544;-71
2023/06/01 01:15:02;;;;;;;6.43;3.93;;;14.10;98.00;;;;;;5016305;28;21094;-71
2023/06/01 01:17:34;;;;;;;7.40;4.03;;;14.00;98.00;;;;;;5033648;28;20461;-71
2023/06/01 01:20:08;;;;;;;9.93;4.20;;;14.00;98.00;;;;;;5033829;28;20486;-72
2023/06/01 01:23:06;;;;;;;8.90;4.00;;;14.10;98.00;;;;;;5034019;28;20512;-71
2023/06/01 01:26:09;;;;;;;7.00;3.50;;;14.10;98.00;;;;;;5033960;28;21199;-72
2023/06/01 01:28:43;;;;;;;7.93;3.60;;;14.00;98.00;;;;;;5033777;28;20893;-72
2023/06/01 01:31:13;;;;;;;8.10;3.67;;;13.90;98.00;;;;;;5033590;28;20865;-71
2023/06/01 01:33:42;;;;;;;6.00;3.47;;;14.00;98.00;;;;;;5033285;28;20455;-72
2023/06/01 01:36:10;;;;;;;7.03;3.70;;;14.10;98.00;;;;;;5033221;28;20461;-72
2023/06/01 01:38:38;;;;;;;7.60;3.63;;;14.20;98.00;;;;;;5033048;28;20463;-72
2023/06/01 01:41:06;;;;;;;5.47;3.37;;;14.20;98.00;;;;;;5033266;28;20991;-71
2023/06/01 01:43:33;;;;;;;7.73;3.60;;;14.10;98.00;;;;;;5033247;28;20566;-72
2023/06/01 01:46:22;;;;;;;5.47;3.47;;;14.10;98.00;;;;;;5033015;28;20459;-72
2023/06/01 01:48:56;;;;;;;6.93;3.83;;;14.10;98.00;;;;;;5032513;28;20549;-71
2023/06/01 01:51:30;;;;;;;8.47;3.93;;;14.10;98.00;;;;;;5033171;28;20550;-71
2023/06/01 01:53:59;;;;;;;5.40;3.30;;;14.00;98.00;;;;;;5033198;28;20454;-71
2023/06/01 01:56:27;;;;;;;6.80;3.40;;;13.90;98.00;;;;;;5033060;28;20466;-71
2023/06/01 01:58:58;;;;;;;7.97;4.03;;;14.00;98.00;;;;;;5032989;28;20455;-72
2023/06/01 02:01:27;;;;;;;5.70;3.50;;;13.90;98.00;;;;;;5032859;28;20523;-72
2023/06/01 02:04:07;;;;;;;6.67;3.83;;;13.80;98.00;;;;;;5032928;28;20504;-71
2023/06/01 02:06:34;;;;;;;7.27;3.43;;;13.70;98.00;;;;;;5032691;28;20485;-71
2023/06/01 02:09:01;;;;;;;11.80;4.27;;;13.70;98.00;;;;;;5032811;28;20871;-71
2023/06/01 02:11:28;;;;;;;6.77;3.83;;;13.90;98.00;;;;;;5032706;28;20460;-71
2023/06/01 02:13:55;;;;;;;7.87;3.70;;;13.70;98.00;;;;;;5032736;28;20893;-71
2023/06/01 02:16:22;;;;;;;7.83;3.87;;;13.70;98.00;;;;;;5032816;28;20466;-72
2023/06/01 02:18:51;;;;;;;5.03;3.13;;;13.40;98.00;;;;;;5032582;28;21080;-71
2023/06/01 02:21:19;;;;;;;7.97;4.00;;;13.30;98.00;;;;;;5032148;28;20478;-71
2023/06/01 02:23:46;;;;;;;5.40;3.67;;;13.30;98.00;;;;;;5014782;28;20539;-72
2023/06/01 02:26:16;;;;;;;7.10;3.70;;;13.40;98.00;;;;;;5032269;28;20457;-71
2023/06/01 02:28:44;;;;;;;10.87;3.60;;;13.30;98.00;;;;;;5032369;28;20463;-72
2023/06/01 02:31:11;;;;;;;7.30;3.40;;;13.40;98.00;;;;;;5032205;28;20865;-71
2023/06/01 02:33:39;;;;;;;5.37;3.90;;;13.20;98.00;;;;;;5032410;28;20462;-71
2023/06/01 02:36:08;;;;;;;4.20;3.20;;;13.20;98.00;;;;;;5032071;28;20469;-71
2023/06/01 02:38:35;;;;;;;6.97;3.33;;;13.30;98.00;;;;;;5032132;28;21086;-71
2023/06/01 02:41:04;;;;;;;5.67;3.40;;;13.50;98.00;;;;;;5014394;28;20482;-71
2023/06/01 02:43:34;;;;;;;6.60;3.70;;;13.60;98.00;;;;;;5032083;28;20455;-71
2023/06/01 02:46:01;;;;;;;5.60;3.43;;;13.40;98.00;;;;;;5032116;28;20461;-71
2023/06/01 02:48:29;;;;;;;7.37;3.50;;;13.20;98.00;;;;;;5031977;28;20822;-71
2023/06/01 02:50:56;;;;;;;6.50;3.90;;;13.10;98.00;;;;;;5032138;28;20455;-71
2023/06/01 02:53:26;;;;;;;8.90;4.60;;;13.20;98.00;;;;;;5031735;28;20462;-71
2023/06/01 02:55:54;;;;;;;5.70;3.47;;;13.10;98.00;;;;;;5032281;28;20462;-71
2023/06/01 02:58:21;;;;;;;6.53;3.80;;;13.10;98.00;;;;;;5032028;28;20470;-72
2023/06/01 03:00:48;;;;;;;6.73;3.60;;;13.00;98.00;;;;;;5032074;28;20528;-72
2023/06/01 03:03:15;;;;;;;5.10;3.10;;;12.90;98.00;;;;;;5014533;28;20465;-71
2023/06/01 03:05:42;;;;;;;8.70;3.90;;;12.90;98.00;;;;;;5032249;28;20844;-71
2023/06/01 03:08:10;;;;;;;5.40;3.30;;;12.90;98.00;;;;;;5014762;28;20467;-72
2023/06/01 03:10:38;;;;;;;5.40;3.37;;;12.90;98.00;;;;;;5032186;28;20460;-72
2023/06/01 03:13:05;;;;;;;7.23;3.70;;;12.80;98.00;;;;;;5031970;28;20538;-71
2023/06/01 03:15:33;;;;;;;5.23;3.23;;;12.70;98.00;;;;;;5032036;28;20484;-72
2023/06/01 03:18:00;;;;;;;4.80;3.23;;;12.60;98.00;;;;;;5031892;28;20905;-71
2023/06/01 03:20:29;;;;;;;6.30;3.30;;;12.70;98.00;;;;;;5031611;28;20457;-71
2023/06/01 03:22:56;;;;;;;8.63;4.00;;;12.70;98.00;;;;;;5031927;28;20469;-72
2023/06/01 03:25:24;;;;;;;7.43;3.90;;;12.60;98.00;;;;;;5031535;28;20546;-72
2023/06/01 03:27:53;;;;;;;7.77;3.60;;;12.50;98.00;;;;;;5031800;28;20960;-72
2023/06/01 03:30:21;;;;;;;6.63;3.97;;;12.60;98.00;;;;;;5031476;28;20462;-71
2023/06/01 03:32:48;;;;;;;5.47;3.53;;;12.80;98.00;;;;;;5032179;28;20551;-71
2023/06/01 03:35:15;;;;;;;7.57;3.90;;;12.60;98.00;;;;;;5035570;28;20477;-71
2023/06/01 03:37:43;;;;;;;12.03;4.20;;;12.50;98.00;;;;;;5035649;28;20462;-71
2023/06/01 03:40:13;;;;;;;6.43;3.77;;;12.60;98.00;;;;;;5035355;28;20462;-71
2023/06/01 03:42:42;;;;;;;6.30;3.23;;;12.60;98.00;;;;;;5034912;28;20497;-72
2023/06/01 03:45:12;;;;;;;7.97;4.10;;;12.50;98.00;;;;;;5035201;28;20524;-71
2023/06/01 03:47:40;;;;;;;9.00;3.70;;;12.50;98.00;;;;;;5035411;28;20454;-72
2023/06/01 03:50:09;;;;;;;7.17;3.90;;;12.60;98.00;;;;;;5035378;28;20500;-72
2023/06/01 03:52:36;;;;;;;5.30;3.37;;;12.60;98.00;;;;;;5035376;28;20466;-71
2023/06/01 03:55:08;;;;;;;9.20;3.70;;;12.50;98.00;;;;;;5035330;28;20451;-71
2023/06/01 03:57:35;;;;;;;6.83;3.43;;;12.70;98.00;;;;;;5035518;28;20454;-72
2023/06/01 04:00:17;;;;;;;7.53;3.70;;;12.80;98.00;;;;;;5035254;28;20463;-72
2023/06/01 04:02:49;;;;;;;5.90;3.60;;;12.90;98.00;;;;;;5035212;28;20482;-71
2023/06/01 04:05:17;;;;;;;7.10;3.70;;;13.00;98.00;;;;;;5035112;28;20482;-71
2023/06/01 04:07:45;;;;;;;7.70;3.73;;;12.90;98.00;;;;;;5034886;28;21035;-71
2023/06/01 04:10:13;;;;;;;6.10;3.30;;;12.90;98.00;;;;;;5034872;28;20512;-72
2023/06/01 04:12:43;;;;;;;7.47;3.47;;;12.80;98.00;;;;;;5017218;28;20462;-71
2023/06/01 04:15:11;;;;;;;6.07;3.50;;;12.70;98.00;;;;;;5034677;28;20455;-72
2023/06/01 04:17:39;;;;;;;7.40;3.70;;;12.70;98.00;;;;;;5034670;28;20545;-71
2023/06/01 04:20:11;;;;;;;6.37;3.40;;;12.70;98.00;;;;;;5034805;28;20451;-72
2023/06/01 04:22:38;;;;;;;5.40;3.37;;;12.70;98.00;;;;;;5034834;28;20492;-71
2023/06/01 04:25:07;;;;;;;6.07;3.70;;;12.80;98.00;;;;;;5016989;28;20832;-71
2023/06/01 04:27:36;;;;;;;8.57;3.70;;;12.90;98.00;;;;;;5034414;28;20507;-71
2023/06/01 04:30:07;;;;;;;7.87;3.50;;;12.80;98.00;;;;;;5034555;28;20517;-71
2023/06/01 04:32:37;;;;;;;7.50;3.40;;;12.80;98.00;;;;;;5034583;28;20462;-72
2023/06/01 04:35:06;;;;;;;7.83;3.80;;;12.70;98.00;;;;;;5034438;28;20454;-72
2023/06/01 04:37:35;;;;;;;12.07;4.40;;;12.70;98.00;;;;;;5034454;28;20960;-71
2023/06/01 04:40:06;;;;;;;7.00;4.07;;;12.80;98.00;;;;;;5034361;28;20462;-72
2023/06/01 04:42:34;;;;;;;6.37;3.60;;;12.80;98.00;;;;;;5034495;28;20843;-71
2023/06/01 04:45:04;;;;;;;6.40;3.53;;;12.80;98.00;;;;;;5033138;28;20524;-71
2023/06/01 04:47:31;;;;;;;5.97;3.40;;;12.90;98.00;;;;;;5034139;28;20501;-72
2023/06/01 04:49:58;;;;;;;5.63;3.43;;;13.10;98.00;;;;;;5034250;28;20458;-71
2023/06/01 04:52:26;;;;;;;6.80;3.83;;;13.30;98.00;;;;;;5034095;28;20513;-71
2023/06/01 04:54:56;;;;;;;7.10;3.90;;;13.40;98.00;;;;;;5034348;28;20459;-71
2023/06/01 04:57:23;;;;;;;5.67;3.60;;;13.60;98.00;;;;;;5034036;28;20462;-72
2023/06/01 04:59:51;;;;;;;5.43;3.60;;;13.90;98.00;;;;;;5034125;28;20480;-71
2023/06/01 05:02:18;;;;;;;6.87;3.93;;;13.90;98.00;;;;;;5034157;28;20490;-72
2023/06/01 05:04:46;;;;;;;9.00;4.47;;;13.90;98.00;;;;;;5034291;28;20455;-72
2023/06/01 05:07:13;;;;;;;7.57;4.07;;;14.00;98.00;;;;;;5034129;28;20458;-71
2023/06/01 05:09:40;;;;;;;6.60;3.40;;;14.10;98.00;;;;;;5034106;28;20971;-71
2023/06/01 05:12:10;;;;;;;12.20;4.20;;;14.10;98.00;;;;;;5033734;28;20528;-72
2023/06/01 05:14:37;;;;;;;7.53;4.50;;;14.20;98.00;;;;;;5015938;28;20541;-72
2023/06/01 05:17:05;;;;;;;9.13;4.87;;;14.30;98.00;;;;;;5033172;28;21062;-71
2023/06/01 05:19:32;;;;;;;10.23;4.73;;;14.50;98.00;;;;;;5034007;28;20454;-71
2023/06/01 05:21:59;;;;;;;9.87;4.90;;;14.60;98.00;;;;;;5033567;28;21162;-72
2023/06/01 05:24:26;;;;;;;10.57;4.87;;;14.60;98.00;;;;;;5033448;28;20508;-72
2023/06/01 05:26:53;;;;;;;11.97;5.20;;;14.60;98.00;;;;;;5033558;28;20458;-72
2023/06/01 05:29:22;;;;;;;12.00;4.67;;;14.80;98.00;;;;;;5033342;28;20450;-71
2023/06/01 05:31:50;;;;;;;9.77;5.10;;;14.80;98.00;;;;;;5033146;28;20538;-72
2023/06/01 05:34:17;;;;;;;9.27;5.00;;;14.90;98.00;;;;;;5032650;28;20991;-71
2023/06/01 05:36:45;;;;;;;13.20;4.70;;;15.00;98.00;;;;;;5032914;28;20956;-72
2023/06/01 05:39:12;;;;;;;10.50;4.97;;;15.00;98.00;;;;;;5032691;28;20455;-71
2023/06/01 05:41:39;;;;;;;7.63;4.77;;;15.10;98.00;;;;;;5032429;28;20518;-72
2023/06/01 05:44:06;;;;;;;10.03;4.90;;;15.20;98.00;;;;;;5014853;28;20462;-72
2023/06/01 05:46:35;;;;;;;9.43;4.87;;;15.30;98.00;;;;;;5033234;28;20929;-72
2023/06/01 05:49:02;;;;;;;12.13;5.00;;;15.40;98.00;;;;;;5033140;28;20465;-72
2023/06/01 05:51:29;;;;;;;7.87;4.47;;;15.30;98.00;;;;;;5033179;28;20466;-71
2023/06/01 05:53:56;;;;;;;11.20;5.23;;;15.30;98.00;;;;;;5033084;28;20455;-72
2023/06/01 05:56:23;;;;;;;13.17;5.33;;;15.40;98.00;;;;;;5032756;28;20834;-72
2023/06/01 05:58:52;;;;;;;9.83;4.50;;;15.40;98.00;;;;;;5033029;28;20455;-72
2023/06/01 06:01:22;;;;;;;6.97;4.23;;;15.50;98.00;;;;;;5033132;28;20496;-70
2023/06/01 06:03:53;;;;;;;8.30;5.00;;;15.70;98.00;;;;;;5032808;28;20958;-71
2023/06/01 06:06:21;;;;;;;9.73;4.67;;;15.80;98.00;;;;;;5032061;28;20458;-71
2023/06/01 06:08:48;;;;;;;11.37;5.57;;;15.80;98.00;;;;;;5032843;28;20934;-72
2023/06/01 06:11:15;;;;;;;11.90;5.37;;;15.90;98.00;;;;;;5032513;28;20455;-70
2023/06/01 06:13:42;;;;;;;11.43;4.70;;;16.00;98.00;;;;;;5032601;28;20462;-70
2023/06/01 06:16:09;;;;;;;8.60;4.50;;;16.00;98.00;;;;;;5032638;28;20455;-70
2023/06/01 06:18:37;;;;;;;9.30;4.77;;;16.10;98.00;;;;;;5032359;28;20465;-71
2023/06/01 06:21:06;;;;;;;9.63;5.10;;;16.30;98.00;;;;;;5014701;28;20451;-70
2023/06/01 06:23:33;;;;;;;9.57;4.70;;;16.40;98.00;;;;;;5032322;28;20574;-71
2023/06/01 06:26:01;;;;;;;15.37;4.90;;;16.50;98.00;;;;;;5032565;28;20457;-69
2023/06/01 06:28:32;;;;;;;7.70;4.40;;;16.60;98.00;;;;;;5032319;28;20461;-71
2023/06/01 06:30:59;;;;;;;19.63;5.27;;;16.60;98.00;;;;;;5032498;28;20964;-71
2023/06/01 06:33:26;;;;;;;11.13;4.70;;;16.60;98.00;;;;;;5032005;28;20521;-71
2023/06/01 06:35:54;;;;;;;13.07;4.93;;;16.70;98.00;;;;;;5032371;28;20455;-72
2023/06/01 06:38:22;;;;;;;12.33;4.63;;;16.80;98.00;;;;;;5032298;28;20455;-69
2023/06/01 06:40:50;;;;;;;8.23;4.27;;;16.90;98.00;;;;;;5031655;28;20458;-69
2023/06/01 06:43:17;;;;;;;7.50;4.30;;;17.00;98.00;;;;;;5031745;28;20483;-69
2023/06/01 06:45:45;;;;;;;7.67;4.50;;;17.10;98.00;;;;;;5032439;28;21011;-71
2023/06/01 06:48:12;;;;;;;9.97;4.20;;;17.10;98.00;;;;;;5032164;28;20457;-70
2023/06/01 06:50:41;;;;;;;6.40;4.13;;;17.40;98.00;;;;;;5032232;28;20509;-72
2023/06/01 06:53:08;;;;;;;7.20;4.37;;;17.40;98.00;;;;;;5032136;28;20454;-70
2023/06/01 06:55:36;;;;;;;10.70;4.83;;;17.60;98.00;;;;;;5032047;28;20451;-69
2023/06/01 06:58:04;;;;;;;6.43;3.93;;;17.60;98.00;;;;;;5032064;28;20462;-69
2023/06/01 07:00:39;;;;;;;9.70;4.17;;;17.70;98.00;;;;;;5031981;28;20465;-72
2023/06/01 07:03:06;;;;;;;10.90;4.90;;;17.80;98.00;;;;;;5031968;28;20554;-71
2023/06/01 07:05:33;;;;;;;12.13;4.27;;;17.90;98.00;;;;;;5021257;28;21039;-72
2023/06/01 07:08:00;;;;;;;8.27;4.90;;;18.00;98.00;;;;;;5050189;28;20458;-72
2023/06/01 07:10:27;;;;;;;7.83;4.40;;;18.00;98.00;;;;;;5050383;28;20497;-71
2023/06/01 07:12:56;;;;;;;7.20;4.03;;;18.20;98.00;;;;;;5050762;28;20454;-69
2023/06/01 07:15:23;;;;;;;7.00;4.30;;;18.20;98.00;;;;;;5050421;28;20511;-71
2023/06/01 07:17:50;;;;;;;8.00;4.47;;;18.40;98.00;;;;;;5033488;28;20466;-70
2023/06/01 07:20:17;;;;;;;6.30;3.73;;;18.50;98.00;;;;;;5051644;28;20485;-71
2023/06/01 07:22:47;;;;;;;7.10;4.00;;;18.60;98.00;;;;;;5051242;28;20539;-70
2023/06/01 07:25:14;;;;;;;8.53;4.23;;;18.70;98.00;;;;;;5050818;28;20469;-70
2023/06/01 07:27:43;;;;;;;10.43;4.60;;;18.80;98.00;;;;;;5051445;28;20461;-70
2023/06/01 07:30:12;;;;;;;7.70;4.23;;;18.90;98.00;;;;;;5051334;28;20462;-69
2023/06/01 07:32:39;;;;;;;8.37;4.53;;;19.00;98.00;;;;;;5051439;28;20450;-70
2023/06/01 07:35:09;;;;;;;7.33;4.13;;;19.20;98.00;;;;;;5051528;28;20543;-70
2023/06/01 07:37:36;;;;;;;7.23;4.33;;;19.30;98.00;;;;;;5033722;28;20940;-69
2023/06/01 07:40:05;;;;;;;5.50;3.00;;;19.30;98.00;;;;;;5051607;28;20508;-69
2023/06/01 07:42:32;;;;;;;4.77;3.07;;;19.40;98.00;;;;;;5051361;28;20823;-68
2023/06/01 07:45:05;;;;;;;4.70;2.83;;;19.80;98.00;;;;;;5051530;28;20453;-68
2023/06/01 07:47:34;;;;;;;4.00;2.93;;;20.20;98.00;;;;;;5033245;28;20458;-68
2023/06/01 07:50:02;;;;;;;6.43;3.57;;;20.60;98.00;;;;;;5051151;28;20515;-71
2023/06/01 07:52:30;;;;;;;6.30;4.17;;;20.80;98.00;;;;;;5051636;28;20460;-71
2023/06/01 07:54:58;;;;;;;6.50;3.63;;;20.90;96.70;;;;;;5051136;28;20849;-77
2023/06/01 07:57:26;;;;;;;5.60;3.90;;;21.00;96.10;;;;;;5051484;28;21011;-76
2023/06/01 07:59:53;;;;;;;7.10;3.97;;;21.00;94.10;;;;;;5033370;28;20462;-76
2023/06/01 08:02:20;;;;;;;6.67;4.20;;;21.00;94.00;;;;;;5051043;28;20478;-76
2023/06/01 08:04:49;;;;;;;6.90;3.87;;;21.10;94.70;;;;;;5050987;28;20460;-77
2023/06/01 08:07:16;;;;;;;7.87;4.67;;;21.20;95.10;;;;;;5050561;28;20446;-75
2023/06/01 08:09:43;;;;;;;7.07;4.30;;;21.20;94.10;;;;;;5050817;28;20457;-76
2023/06/01 08:12:11;;;;;;;8.63;4.50;;;21.30;92.70;;;;;;5033342;28;20468;-75
2023/06/01 08:14:40;;;;;;;7.23;4.23;;;21.30;93.60;;;;;;5050691;28;20457;-77
2023/06/01 08:17:11;;;;;;;6.17;3.80;;;21.40;93.30;;;;;;5050763;28;20450;-77
2023/06/01 08:19:42;;;;;;;7.63;4.70;;;21.50;93.00;;;;;;5052791;28;20540;-77
2023/06/01 08:22:12;;;;;;;7.60;4.10;;;21.60;91.80;;;;;;5054560;28;20560;-77
2023/06/01 08:24:39;;;;;;;15.57;4.30;;;21.70;91.60;;;;;;5054422;28;20488;-77
2023/06/01 08:27:17;;;;;;;6.93;3.90;;;21.80;91.10;;;;;;5037036;28;20460;-76
2023/06/01 08:29:45;;;;;;;6.40;4.17;;;21.90;92.20;;;;;;5054715;28;20515;-72
2023/06/01 08:32:12;;;;;;;7.90;4.73;;;22.10;92.20;;;;;;5060995;28;20449;-78
2023/06/01 08:34:40;;;;;;;8.43;4.47;;;22.20;90.80;;;;;;5055550;28;20457;-76
2023/06/01 08:37:07;;;;;;;6.60;3.87;;;22.40;92.90;;;;;;5054388;28;20458;-76
2023/06/01 08:39:35;;;;;;;10.40;4.50;;;22.60;92.60;;;;;;5054418;28;20465;-76
2023/06/01 08:42:08;;;;;;;7.73;4.20;;;22.80;93.00;;;;;;5054576;28;20458;-76
2023/06/01 08:44:37;;;;;;;5.93;3.83;;;23.00;91.50;;;;;;5054796;28;20453;-76
2023/06/01 08:47:05;;;;;;;6.73;3.87;;;23.10;93.50;;;;;;5037187;28;20549;-77
2023/06/01 08:49:33;;;;;;;8.07;4.47;;;23.20;90.60;;;;;;5054335;28;20453;-77
2023/06/01 08:52:03;;;;;;;11.03;3.83;;;23.30;89.10;;;;;;5054332;28;20454;-77
2023/06/01 08:54:31;;;;;;;8.57;4.57;;;23.20;88.90;;;;;;5054011;28;20457;-76
2023/06/01 08:57:02;;;;;;;7.63;4.50;;;23.30;88.20;;;;;;5055403;28;20452;-77
2023/06/01 08:59:30;;;;;;;8.67;4.80;;;23.20;87.90;;;;;;5052460;28;20510;-77
2023/06/01 09:01:58;;;;;;;7.13;4.60;;;23.30;88.20;;;;;;5055429;28;20453;-77
2023/06/01 09:04:25;;;;;;;7.83;4.77;;;23.50;89.80;;;;;;5054367;28;20856;-77
2023/06/01 09:06:53;;;;;;;7.30;4.47;;;23.70;91.40;;;;;;5037940;28;20458;-78
2023/06/01 09:09:20;;;;;;;8.50;4.60;;;23.80;91.40;;;;;;5053637;28;20453;-78
2023/06/01 09:11:47;;;;;;;10.43;5.07;;;23.90;88.00;;;;;;5053382;28;20449;-73
2023/06/01 09:14:22;;;;;;;8.40;4.40;;;23.90;87.30;;;;;;5053517;28;20445;-71
2023/06/01 09:16:50;;;;;;;11.10;4.27;;;24.00;88.70;;;;;;5053242;28;20951;-70
2023/06/01 09:19:20;;;;;;;7.00;4.30;;;24.20;88.20;;;;;;5053362;28;20457;-71
2023/06/01 09:21:58;;;;;;;5.93;3.90;;;24.40;89.10;;;;;;5053483;28;21001;-70
2023/06/01 09:24:25;;;;;;;8.47;4.60;;;24.60;88.80;;;;;;5053161;28;21050;-71
2023/06/01 09:26:59;;;;;;;8.07;4.70;;;24.50;85.80;;;;;;5053480;28;20827;-70
2023/06/01 09:29:28;;;;;;;6.50;4.10;;;24.50;87.30;;;;;;5053405;28;20544;-71
2023/06/01 09:31:55;;;;;;;8.00;4.80;;;24.70;88.40;;;;;;5052782;28;20488;-70
2023/06/01 09:34:23;;;;;;;8.67;4.60;;;24.90;85.90;;;;;;5053077;28;20472;-70
2023/06/01 09:36:51;;;;;;;10.07;4.60;;;25.10;87.10;;;;;;5053181;28;20458;-72
2023/06/01 09:39:20;;;;;;;8.90;4.53;;;25.30;85.50;;;;;;5035363;28;20508;-70
2023/06/01 09:41:49;;;;;;;8.83;4.27;;;25.40;83.30;;;;;;5053392;28;20465;-70
2023/06/01 09:44:25;;;;;;;7.43;4.60;;;25.40;82.70;;;;;;5052911;28;20487;-70
2023/06/01 09:46:56;;;;;;;7.60;4.30;;;25.60;84.00;;;;;;5041891;28;20446;-70
2023/06/01 09:49:27;;;;;;;6.70;4.07;;;25.70;83.10;;;;;;5032906;28;20447;-70
2023/06/01 09:52:08;;;;;;;7.87;4.30;;;26.00;85.80;;;;;;5015681;28;20466;-73
2023/06/01 09:54:38;;;;;;;8.80;5.03;;;26.10;82.20;;;;;;5032795;28;20458;-76
2023/06/01 09:57:09;;;;;;;7.80;5.13;;;26.20;83.70;;;;;;5032776;28;20454;-74
2023/06/01 09:59:42;;;;;;;8.33;4.40;;;26.10;81.10;;;;;;5032901;28;20459;-75
2023/06/01 10:02:14;;;;;;;9.57;5.30;;;25.80;81.50;;;;;;5019067;28;20462;-76
2023/06/01 10:04:45;;;;;;;8.63;5.20;;;25.90;83.00;;;;;;5034551;28;20490;-69
2023/06/01 10:07:16;;;;;;;8.27;4.70;;;26.00;82.40;;;;;;5032639;28;20964;-80
2023/06/01 10:09:46;;;;;;;8.60;4.90;;;26.00;80.80;;;;;;5032732;28;20458;-78
2023/06/01 10:12:14;;;;;;;6.37;4.30;;;26.20;81.30;;;;;;5032783;28;20462;-78
2023/06/01 10:14:41;;;;;;;9.47;4.87;;;26.20;84.20;;;;;;5033007;28;21003;-77
2023/06/01 10:17:11;;;;;;;7.93;4.53;;;26.50;81.90;;;;;;5034165;28;20458;-78
2023/06/01 10:19:38;;;;;;;8.13;4.90;;;26.80;83.10;;;;;;5034629;28;20465;-78
2023/06/01 10:22:07;;;;;;;7.70;4.97;;;26.90;80.90;;;;;;5034696;28;20491;-78
2023/06/01 10:24:35;;;;;;;8.17;4.80;;;26.90;78.80;;;;;;5037126;28;21065;-79
2023/06/01 10:27:10;;;;;;;9.00;5.30;;;27.00;79.50;;;;;;5037615;28;20458;-77
2023/06/01 10:29:39;;;;;;;8.10;5.10;;;27.10;80.30;;;;;;5038456;28;20469;-77
2023/06/01 10:32:27;;;;;;;10.30;5.10;;;27.00;76.50;;;;;;5032748;28;20967;-78
2023/06/01 10:34:58;;;;;;;8.70;5.10;;;27.10;80.20;;;;;;5034066;28;20470;-75
2023/06/01 10:37:25;;;;;;;9.07;5.30;;;27.30;79.60;;;;;;5031988;28;20521;-76
2023/06/01 10:39:52;;;;;;;7.97;5.07;;;27.10;77.80;;;;;;5032571;28;20458;-74
2023/06/01 10:42:39;;;;;;;8.27;4.80;;;27.20;78.00;;;;;;5031470;28;20797;-72
2023/06/01 10:45:09;;;;;;;7.70;4.80;;;27.30;78.00;;;;;;5032069;28;20458;-72
2023/06/01 10:47:47;;;;;;;8.63;5.00;;;27.50;78.10;;;;;;5032093;28;20515;-69
2023/06/01 10:50:19;;;;;;;18.23;4.43;;;27.80;78.80;;;;;;5031538;28;20462;-72
2023/06/01 10:52:47;;;;;;;8.53;4.70;;;28.10;78.60;;;;;;5032000;28;20457;-72
2023/06/01 10:55:25;;;;;;;12.20;4.93;;;28.30;79.30;;;;;;5031640;28;20454;-72
2023/06/01 10:57:52;;;;;;;7.07;4.70;;;28.30;73.60;;;;;;5031971;28;20458;-72
2023/06/01 11:00:22;;;;;;;7.60;4.80;;;28.20;75.40;;;;;;5031745;28;20504;-71
2023/06/01 11:02:55;;;;;;;11.23;4.70;;;28.30;77.50;;;;;;5031962;28;20862;-73
2023/06/01 11:05:50;;;;;;;7.20;4.83;;;28.40;77.80;;;;;;5032040;28;20944;-73
2023/06/01 11:08:52;;;;;;;7.37;4.70;;;28.70;75.30;;;;;;5032181;28;20948;-73
2023/06/01 11:11:21;;;;;;;9.63;4.73;;;28.90;74.50;;;;;;5032047;28;20485;-73
2023/06/01 11:14:11;;;;;;;8.13;4.60;;;29.10;73.30;;;;;;5014706;28;20473;-73
2023/06/01 11:16:38;;;;;;;5.70;4.20;;;29.20;72.20;;;;;;5032128;28;20886;-74
2023/06/01 11:19:07;;;;;;;7.50;4.93;;;29.40;74.00;;;;;;5031674;28;20462;-74
2023/06/01 11:21:39;;;;;;;8.23;5.40;;;29.40;69.90;;;;;;5031948;28;20929;-73
2023/06/01 11:24:09;;;;;;;5.93;4.27;;;29.30;69.60;;;;;;5031951;28;20522;-74
2023/06/01 11:26:39;;;;;;;7.83;4.70;;;29.40;72.00;;;;;;5031900;28;20953;-74
2023/06/01 11:29:11;;;;;;;7.27;4.40;;;29.50;70.50;;;;;;5014310;28;20462;-73
2023/06/01 11:31:41;;;;;;;7.47;5.07;;;29.70;74.00;;;;;;5031935;28;20494;-76
2023/06/01 11:34:10;;;;;;;10.17;4.90;;;30.10;71.00;;;;;;5031739;28;20459;-75
2023/06/01 11:36:40;;;;;;;7.77;4.70;;;30.20;71.30;;;;;;5031751;28;20948;-75
2023/06/01 11:39:16;;;;;;;8.50;4.70;;;29.80;69.40;;;;;;5031855;28;20463;-69
2023/06/01 11:41:44;;;;;;;8.55;4.53;;;29.40;71.50;;;;;;5031115;28;20952;-69
2023/06/01 11:44:11;;;;;;;7.07;4.77;;;29.70;72.30;;;;;;5031470;28;20767;-69
2023/06/01 11:46:38;;;;;;;6.47;4.40;;;29.60;70.40;;;;;;5031527;28;20458;-70
2023/06/01 11:49:06;;;;;;;7.63;4.80;;;29.30;70.20;;;;;;5031550;28;20457;-71
2023/06/01 11:51:39;;;;;;;9.97;4.90;;;29.10;69.20;;;;;;5031431;28;20490;-69
2023/06/01 11:54:08;;;;;;;6.47;4.20;;;29.30;71.00;;;;;;5032583;28;20541;-73
2023/06/01 11:56:39;;;;;;;7.37;4.50;;;29.80;73.80;;;;;;5035189;28;20454;-72
2023/06/01 11:59:08;;;;;;;8.67;4.33;;;30.30;69.10;;;;;;5035324;28;20450;-71
2023/06/01 12:01:36;;;;;;;7.30;4.50;;;30.40;68.00;;;;;;5035286;28;20455;-72
2023/06/01 12:04:07;;;;;;;8.03;4.70;;;30.60;67.00;;;;;;5017604;28;21172;-70
2023/06/01 12:06:35;;;;;;;7.80;5.27;;;31.00;67.50;;;;;;5035128;28;20469;-69
2023/06/01 12:09:06;;;;;;;6.90;4.70;;;31.40;66.40;;;;;;5035192;28;20458;-75
2023/06/01 12:11:34;;;;;;;6.17;4.33;;;31.70;69.40;;;;;;5037804;28;20461;-76
2023/06/01 12:14:05;;;;;;;8.50;5.20;;;31.80;65.70;;;;;;5036164;28;20980;-74
2023/06/01 12:16:56;;;;;;;8.43;4.47;;;32.00;66.30;;;;;;5035303;28;20517;-72
2023/06/01 12:19:23;;;;;;;11.17;4.87;;;32.00;65.00;;;;;;5035093;28;20450;-72
2023/06/01 12:21:51;;;;;;;13.70;5.00;;;31.60;64.70;;;;;;5034923;28;20462;-70
2023/06/01 12:24:27;;;;;;;6.63;4.63;;;31.50;65.60;;;;;;5034743;28;20493;-72
2023/06/01 12:26:54;;;;;;;7.23;4.77;;;31.80;64.00;;;;;;5036285;28;20544;-76
2023/06/01 12:29:36;;;;;;;11.67;4.80;;;32.10;65.70;;;;;;5035834;28;20461;-75
2023/06/01 12:32:03;;;;;;;8.60;4.70;;;32.10;64.10;;;;;;5016990;28;20490;-73
2023/06/01 12:34:31;;;;;;;7.03;4.87;;;32.30;66.80;;;;;;5034740;28;20543;-74
2023/06/01 12:36:58;;;;;;;8.10;4.90;;;32.50;64.10;;;;;;5034498;28;20463;-74
2023/06/01 12:39:36;;;;;;;8.57;4.80;;;32.50;66.20;;;;;;5034442;28;20458;-73
2023/06/01 12:42:06;;;;;;;7.40;4.70;;;32.40;65.00;;;;;;5034318;28;21008;-74
2023/06/01 12:44:35;;;;;;;8.10;4.70;;;32.40;65.80;;;;;;5034375;28;20909;-73
2023/06/01 12:47:03;;;;;;;7.30;4.90;;;32.40;62.90;;;;;;5034165;28;20936;-74
2023/06/01 12:49:31;;;;;;;9.03;5.33;;;32.50;65.30;;;;;;5034357;28;20463;-74
2023/06/01 12:51:58;;;;;;;5.97;4.23;;;32.50;63.70;;;;;;5034710;28;20455;-73
2023/06/01 12:54:30;;;;;;;6.10;4.60;;;32.50;64.40;;;;;;5034339;28;20789;-74
2023/06/01 12:57:01;;;;;;;6.87;4.70;;;32.70;63.70;;;;;;5034381;28;20545;-74